Time;durP1;ratioP1;P1;durP2;ratioP2;P2;SDS_P1;SDS_P2;PMS_P1;PMS_P2;Temp;Humidity;BMP_temperature;BMP_pressure;BME280_temperature;BME280_humidity;BME280_pressure;Samples;Min_cycle;Max_cycle;Signal;HPM_P1;HPM_P2
2022/08/12 00:44:54;;;;;;;6.95;2.87;;;;;;;18.04;79.84;101366.28;1741023;81;26065;-78
2022/08/12 00:47:21;;;;;;;5.50;3.10;;;;;;;18.05;79.90;101366.58;1731342;81;25908;-79
2022/08/12 00:49:49;;;;;;;9.75;3.02;;;;;;;18.06;80.16;101370.97;1734387;81;25871;-79
2022/08/12 00:52:18;;;;;;;7.12;3.15;;;;;;;18.06;80.28;101369.61;1728441;81;25919;-78
2022/08/12 00:54:52;;;;;;;3.67;2.70;;;;;;;18.05;80.37;101370.64;1738726;81;28299;-80
2022/08/12 00:57:28;;;;;;;5.53;2.98;;;;;;;18.06;80.45;101370.13;1737790;81;25894;-80
2022/08/12 01:00:03;;;;;;;7.05;3.00;;;;;;;18.07;80.33;101373.16;1746240;81;26359;-78
2022/08/12 01:02:33;;;;;;;6.25;3.12;;;;;;;18.09;80.11;101369.16;1731050;81;25920;-79
2022/08/12 01:13:32;;;;;;;5.42;2.50;;;;;;;18.11;80.11;101373.84;1733288;81;25826;-79
2022/08/12 01:16:02;;;;;;;2.20;2.00;;;;;;;18.09;80.30;101369.70;1738182;81;25990;-81
2022/08/12 01:18:32;;;;;;;5.62;2.40;;;;;;;18.04;80.41;101360.02;1740222;81;26018;-79
2022/08/12 01:21:11;;;;;;;4.87;2.33;;;;;;;17.91;80.33;101358.73;1737987;81;27526;-81
2022/08/12 01:24:17;;;;;;;3.42;2.42;;;;;;;17.84;80.65;101355.22;1742585;81;26411;-79
2022/08/12 01:26:47;;;;;;;5.12;2.72;;;;;;;17.73;80.66;101356.72;1745384;81;26025;-81
2022/08/12 01:29:17;;;;;;;5.80;2.45;;;;;;;17.59;80.51;101353.77;1740842;81;26507;-77
2022/08/12 01:31:46;;;;;;;;;;;;;;;17.53;80.55;101351.41;1740653;81;26307;-81
2022/08/12 01:34:18;;;;;;;4.67;2.85;;;;;;;17.50;80.66;101340.15;1745600;81;28267;-79
2022/08/12 01:36:55;;;;;;;5.80;2.85;;;;;;;17.44;80.57;101343.17;1730603;81;25756;-80
2022/08/12 01:39:27;;;;;;;4.70;3.05;;;;;;;17.44;80.35;101349.94;1737534;81;25834;-79
2022/08/12 01:41:58;;;;;;;3.35;2.77;;;;;;;17.46;80.32;101350.56;1708730;82;26366;-78
2022/08/12 01:44:26;;;;;;;4.72;3.30;;;;;;;17.47;80.20;101350.05;1748687;81;25531;-81
2022/08/12 01:47:18;;;;;;;6.90;2.65;;;;;;;17.49;80.08;101352.02;1732515;81;27448;-79
2022/08/12 01:49:59;;;;;;;;;;;;;;;17.49;80.05;101349.30;1739908;81;25800;-78
2022/08/12 01:52:59;;;;;;;3.02;2.67;;;;;;;17.50;80.06;101349.63;1742224;81;26387;-77
2022/08/12 01:55:35;;;;;;;5.15;2.98;;;;;;;17.46;79.89;101345.66;1736699;81;26459;-78
2022/08/12 02:01:19;;;;;;;5.55;3.17;;;;;;;17.46;79.70;101343.78;1648175;84;27554;-79
2022/08/12 02:13:47;;;;;;;6.15;2.72;;;;;;;17.41;79.72;101336.81;1679262;84;26434;-79
2022/08/12 02:16:58;;;;;;;3.90;2.98;;;;;;;17.44;79.80;101328.79;1738945;81;28304;-79
2022/08/12 02:20:06;;;;;;;5.53;2.80;;;;;;;17.44;79.97;101317.95;1723616;81;25791;-77
2022/08/12 02:22:38;;;;;;;5.55;2.52;;;;;;;17.41;79.92;101323.27;1731125;81;26019;-77
2022/08/12 02:25:16;;;;;;;4.08;3.25;;;;;;;17.39;79.98;101335.36;1735725;81;25727;-77
2022/08/12 02:27:47;;;;;;;3.58;2.95;;;;;;;17.35;79.96;101326.84;1739481;81;26368;-78
2022/08/12 02:30:18;;;;;;;3.25;2.80;;;;;;;17.32;80.02;101317.77;1731264;81;27413;-78
2022/08/12 02:32:47;;;;;;;5.40;2.90;;;;;;;17.32;80.06;101316.97;1754684;80;26336;-79
2022/08/12 02:35:21;;;;;;;4.95;3.00;;;;;;;17.29;80.14;101306.03;1731606;81;25881;-76
2022/08/12 02:37:52;;;;;;;5.70;3.00;;;;;;;17.28;80.12;101307.61;1738045;81;25791;-77
2022/08/12 02:40:21;;;;;;;4.80;2.95;;;;;;;17.27;80.09;101312.70;1747125;81;25978;-77
2022/08/12 02:43:26;;;;;;;6.85;2.87;;;;;;;17.25;80.03;101312.08;1752423;80;27450;-80
2022/08/12 02:46:08;;;;;;;6.95;2.77;;;;;;;17.25;80.06;101310.22;1738457;81;26270;-76
2022/08/12 02:48:51;;;;;;;3.40;2.50;;;;;;;17.24;80.03;101309.89;1729703;81;26316;-77
2022/08/12 02:51:31;;;;;;;5.25;3.27;;;;;;;17.21;80.03;101304.08;1740870;81;25825;-78
2022/08/12 02:54:02;;;;;;;4.67;2.87;;;;;;;17.19;80.02;101299.41;1741459;81;26074;-78
2022/08/12 02:56:29;;;;;;;8.08;3.10;;;;;;;17.15;79.98;101294.11;1736015;81;28754;-78
2022/08/12 02:58:57;;;;;;;4.53;2.98;;;;;;;17.13;79.98;101293.48;1757041;81;25724;-78
2022/08/12 03:01:32;;;;;;;3.58;3.00;;;;;;;17.13;79.95;101311.89;1737905;81;25769;-78
2022/08/12 03:04:01;;;;;;;4.33;3.58;;;;;;;17.13;79.91;101321.37;1698594;82;25941;-80
2022/08/12 03:06:39;;;;;;;3.52;3.22;;;;;;;17.13;79.93;101322.72;1702277;82;25848;-78
2022/08/12 03:09:12;;;;;;;4.92;3.37;;;;;;;17.14;80.01;101320.34;1693230;82;28293;-79
2022/08/12 03:11:47;;;;;;;4.60;3.33;;;;;;;17.15;80.13;101316.58;1692378;82;25794;-77
2022/08/12 03:14:17;;;;;;;5.28;3.33;;;;;;;17.16;80.21;101316.89;1699614;82;25860;-80
2022/08/12 03:16:52;;;;;;;5.27;3.30;;;;;;;17.17;80.36;101320.44;1705912;82;25915;-80
2022/08/12 03:19:20;;;;;;;6.72;3.20;;;;;;;17.14;80.44;101321.69;1688443;82;25898;-79
2022/08/12 03:21:50;;;;;;;3.70;3.15;;;;;;;17.13;80.48;101319.20;1697430;82;28609;-80
2022/08/12 03:24:17;;;;;;;4.60;3.40;;;;;;;17.12;80.47;101317.53;1683222;82;25996;-80
2022/08/12 03:26:46;;;;;;;5.35;3.10;;;;;;;17.13;80.69;101313.80;1702889;82;26349;-79
2022/08/12 03:29:15;;;;;;;4.87;3.22;;;;;;;17.11;80.72;101310.47;1674727;84;25752;-78
2022/08/12 03:31:42;;;;;;;6.65;3.17;;;;;;;17.10;80.82;101302.86;1701227;82;25904;-78
2022/08/12 03:34:13;;;;;;;4.17;3.17;;;;;;;17.10;80.89;101301.51;1667424;84;28272;-78
2022/08/12 03:36:41;;;;;;;6.87;3.57;;;;;;;17.10;81.08;101305.56;1702702;82;26022;-78
2022/08/12 03:42:27;;;;;;;6.97;3.50;;;;;;;17.14;81.26;101328.46;1687001;84;25961;-79
2022/08/12 04:02:03;;;;;;;3.20;2.90;;;;;;;17.25;81.35;101332.39;1667851;84;28238;-78
2022/08/12 04:04:33;;;;;;;6.40;3.40;;;;;;;17.24;81.39;101346.44;1701294;84;25786;-78
2022/08/12 04:07:07;;;;;;;4.65;3.00;;;;;;;17.25;81.59;101349.47;1699943;82;25889;-79
2022/08/12 04:09:37;;;;;;;4.92;3.12;;;;;;;17.27;81.83;101358.22;1668179;84;26186;-77
2022/08/12 04:14:53;;;;;;;4.17;3.52;;;;;;;17.29;81.87;101351.23;1696262;84;27467;-79
2022/08/12 04:17:20;;;;;;;4.97;3.40;;;;;;;17.28;82.25;101340.91;1671974;84;25899;-78
2022/08/12 04:19:48;;;;;;;5.72;3.70;;;;;;;17.27;82.58;101357.38;1702793;82;25837;-79
2022/08/12 04:22:15;;;;;;;5.85;3.80;;;;;;;17.27;82.83;101356.02;1702871;84;26542;-79
2022/08/12 04:24:43;;;;;;;6.17;3.92;;;;;;;17.27;83.16;101350.09;1674070;84;25916;-79
2022/08/12 04:27:10;;;;;;;7.10;4.12;;;;;;;17.28;83.31;101362.57;1701586;82;26926;-78
2022/08/12 04:29:39;;;;;;;5.85;3.77;;;;;;;17.29;83.44;101361.55;1699291;83;25806;-78
2022/08/12 04:32:06;;;;;;;6.03;3.80;;;;;;;17.34;83.64;101362.27;1672362;84;25882;-78
2022/08/12 04:34:33;;;;;;;6.22;4.20;;;;;;;17.37;83.77;101369.43;1672207;84;26683;-79
2022/08/12 04:36:59;;;;;;;6.97;3.90;;;;;;;17.38;84.07;101367.05;1701798;84;25774;-76
2022/08/12 04:39:26;;;;;;;4.75;4.20;;;;;;;17.39;84.09;101370.05;1698747;84;28326;-77
2022/08/12 04:41:52;;;;;;;6.12;4.35;;;;;;;17.42;84.51;101375.05;1670089;84;26436;-77
2022/08/12 04:44:19;;;;;;;4.92;4.15;;;;;;;17.45;84.46;101381.38;1699881;83;25673;-78
2022/08/12 04:46:45;;;;;;;8.58;4.80;;;;;;;17.47;84.68;101372.52;1672341;85;25819;-79
2022/08/12 04:49:12;;;;;;;6.75;4.75;;;;;;;17.49;84.79;101369.62;1695642;84;25924;-78
2022/08/12 04:51:39;;;;;;;6.58;4.35;;;;;;;17.51;85.05;101369.72;1671176;84;27462;-78
2022/08/12 04:54:05;;;;;;;7.65;3.80;;;;;;;17.50;85.17;101357.23;1672755;84;25821;-78
2022/08/12 04:56:32;;;;;;;4.90;3.42;;;;;;;17.51;85.37;101360.79;1701993;84;25772;-78
2022/08/12 04:58:59;;;;;;;4.00;3.50;;;;;;;17.52;85.42;101362.44;1673650;85;25798;-79
2022/08/12 05:01:29;;;;;;;5.25;3.95;;;;;;;17.55;85.54;101371.50;1701230;84;25286;-79
2022/08/12 05:03:56;;;;;;;3.95;3.58;;;;;;;17.58;85.67;101361.06;1699982;83;28279;-78
2022/08/12 05:06:24;;;;;;;7.22;4.15;;;;;;;17.61;85.88;101360.64;1675754;84;25614;-78
2022/08/12 05:08:55;;;;;;;5.70;3.92;;;;;;;17.63;85.94;101362.62;1697216;82;25830;-78
2022/08/12 05:11:23;;;;;;;4.37;3.98;;;;;;;17.67;86.11;101353.52;1700082;82;25779;-79
2022/08/12 05:13:55;;;;;;;6.47;3.87;;;;;;;17.68;86.06;101353.30;1672288;84;25973;-78
2022/08/12 05:16:21;;;;;;;4.70;3.70;;;;;;;17.70;86.22;101360.72;1695924;82;27462;-79
2022/08/12 05:18:48;;;;;;;4.47;4.08;;;;;;;17.72;86.59;101361.85;1672259;84;25788;-79
2022/08/12 05:21:15;;;;;;;3.83;3.52;;;;;;;17.73;86.67;101364.05;1706878;83;25741;-78
2022/08/12 05:23:42;;;;;;;5.05;3.98;;;;;;;17.73;87.07;101362.98;1707905;82;26516;-79
2022/08/12 05:26:09;;;;;;;4.40;4.00;;;;;;;17.70;87.05;101359.37;1701859;83;25934;-79
2022/08/12 05:28:37;;;;;;;4.22;3.83;;;;;;;17.73;87.11;101362.14;1745610;81;27413;-78
2022/08/12 05:31:04;;;;;;;3.95;3.42;;;;;;;17.77;86.94;101355.79;1734501;81;25946;-78
2022/08/12 05:33:36;;;;;;;4.55;3.60;;;;;;;17.85;86.91;101369.09;1733932;81;25694;-79
2022/08/12 05:36:00;;;;;;;6.55;4.05;;;;;;;17.91;87.18;101366.87;1739570;81;25759;-79
2022/08/12 05:41:19;;;;;;;5.97;3.75;;;;;;;18.06;87.30;101370.97;1686910;82;27471;-79
2022/08/12 05:44:04;;;;;;;7.10;3.60;;;;;;;18.09;87.23;101355.59;1698485;82;26486;-79
2022/08/12 05:46:32;;;;;;;5.47;3.67;;;;;;;18.15;87.45;101357.98;1673258;84;25273;-79
2022/08/12 05:49:01;;;;;;;8.23;3.37;;;;;;;18.23;87.40;101363.14;1693868;82;26099;-78
2022/08/12 05:51:32;;;;;;;4.42;3.42;;;;;;;18.27;87.46;101361.66;1676453;84;25568;-79
2022/08/12 05:53:59;;;;;;;5.58;3.72;;;;;;;18.30;87.39;101363.94;1677729;84;28391;-79
2022/08/12 05:56:33;;;;;;;8.00;3.42;;;;;;;18.32;87.71;101359.97;1673581;84;26520;-79
2022/08/12 05:59:02;;;;;;;5.40;3.60;;;;;;;18.36;88.20;101365.26;1702981;82;25844;-79
2022/08/12 06:01:29;;;;;;;6.55;3.72;;;;;;;18.40;88.32;101366.47;1685446;82;26514;-77
2022/08/12 06:03:56;;;;;;;4.22;3.35;;;;;;;18.45;88.38;101364.50;1722501;81;25708;-77
2022/08/12 06:06:23;;;;;;;5.28;3.35;;;;;;;18.50;88.41;101357.87;1740623;81;28422;-79
2022/08/12 06:08:52;;;;;;;5.45;4.33;;;;;;;18.54;88.25;101348.23;1730922;81;25787;-79
2022/08/12 06:11:21;;;;;;;4.35;3.80;;;;;;;18.66;88.44;101347.00;1737466;81;26485;-79
2022/08/12 06:13:48;;;;;;;3.60;3.10;;;;;;;18.78;88.25;101343.34;1739564;81;26437;-80
2022/08/12 06:16:18;;;;;;;4.72;3.85;;;;;;;18.88;88.15;101345.02;1665573;84;25781;-80
2022/08/12 06:18:45;;;;;;;;;;;;;;;18.94;87.73;101346.87;1703588;82;27961;-78
2022/08/12 06:21:16;;;;;;;4.67;3.55;;;;;;;18.98;87.59;101349.44;1700841;82;26502;-78
2022/08/12 06:23:44;;;;;;;;;;;;;;;19.05;87.96;101353.45;1708393;82;25797;-78
2022/08/12 06:26:14;;;;;;;5.10;3.67;;;;;;;19.11;88.13;101351.19;1705525;82;26465;-79
2022/08/12 06:28:47;;;;;;;5.53;3.30;;;;;;;19.17;88.42;101351.64;1704084;82;26718;-80
2022/08/12 06:31:17;;;;;;;6.45;3.85;;;;;;;19.27;88.30;101352.49;1731828;81;27531;-79
2022/08/12 06:33:46;;;;;;;6.17;3.60;;;;;;;19.34;87.88;101349.16;1737620;81;25566;-78
2022/08/12 06:36:15;;;;;;;7.72;4.28;;;;;;;19.45;87.59;101345.72;1676224;82;25763;-78
2022/08/12 06:38:44;;;;;;;5.65;3.50;;;;;;;19.54;87.54;101348.45;1697253;82;25735;-82
2022/08/12 06:43:56;;;;;;;5.60;3.60;;;;;;;19.66;86.59;101355.61;1732441;81;27459;-78
2022/08/12 06:46:24;;;;;;;7.17;3.75;;;;;;;19.75;86.35;101357.48;1742588;81;26567;-77
2022/08/12 06:48:55;;;;;;;7.62;4.22;;;;;;;19.81;86.11;101360.13;1739487;81;25809;-78
2022/08/12 06:51:20;;;;;;;5.53;3.75;;;;;;;19.89;85.75;101353.52;1741490;81;25821;-79
2022/08/12 06:53:46;;;;;;;5.20;3.45;;;;;;;19.96;85.72;101361.91;1737736;81;25830;-79
2022/08/12 06:56:13;;;;;;;5.17;3.80;;;;;;;20.03;85.44;101352.30;1737083;81;26994;-81
2022/08/12 06:58:39;;;;;;;7.72;3.85;;;;;;;20.11;85.39;101349.78;1739446;81;26109;-78
2022/08/12 07:01:06;;;;;;;4.08;3.67;;;;;;;20.18;85.44;101354.60;1722418;81;25881;-78
2022/08/12 07:03:35;;;;;;;5.10;3.62;;;;;;;20.24;85.37;101357.27;1741505;81;25897;-79
2022/08/12 07:06:05;;;;;;;6.22;3.65;;;;;;;20.32;85.48;101358.28;1741688;81;25915;-79
2022/08/12 07:08:34;;;;;;;5.40;3.60;;;;;;;20.40;85.02;101353.86;1738742;81;27525;-78
2022/08/12 07:11:04;;;;;;;7.22;3.55;;;;;;;20.49;84.87;101353.00;1737048;81;25792;-78
2022/08/12 07:13:37;;;;;;;10.15;3.83;;;;;;;20.57;84.41;101356.20;1739282;81;26387;-77
2022/08/12 07:16:05;;;;;;;6.47;3.45;;;;;;;20.63;84.46;101356.66;1739473;82;25863;-77
2022/08/12 07:18:32;;;;;;;6.58;3.77;;;;;;;20.68;83.82;101355.41;1742648;81;26622;-78
2022/08/12 07:21:04;;;;;;;5.70;2.98;;;;;;;20.77;83.74;101350.44;1738902;81;28045;-78
2022/08/12 07:23:34;;;;;;;5.58;3.22;;;;;;;20.92;83.37;101356.26;1734055;81;25794;-78
2022/08/12 07:26:04;;;;;;;7.13;3.27;;;;;;;21.09;83.37;101356.41;1744501;81;25801;-79
2022/08/12 07:28:34;;;;;;;4.12;3.62;;;;;;;21.20;82.86;101351.48;1741046;81;26586;-78
2022/08/12 07:31:03;;;;;;;4.05;3.20;;;;;;;21.30;83.08;101348.45;1735664;82;26277;-77
2022/08/12 07:33:31;;;;;;;4.37;3.52;;;;;;;21.41;82.32;101346.78;1715841;82;29082;-78
2022/08/12 07:36:01;;;;;;;3.50;3.20;;;;;;;21.53;81.71;101354.95;1740358;81;25916;-79
2022/08/12 07:38:45;;;;;;;6.70;2.77;;;;;;;21.62;81.80;101348.05;1739579;81;25335;-79
2022/08/12 07:41:20;;;;;;;5.85;3.00;;;;;;;21.70;79.96;101354.48;1737371;81;25804;-80
2022/08/12 07:43:55;;;;;;;5.33;3.35;;;;;;;21.78;80.30;101358.20;1737826;81;25803;-78
2022/08/12 07:46:26;;;;;;;8.13;3.00;;;;;;;21.84;79.37;101354.52;1744713;81;27439;-80
2022/08/12 07:48:56;;;;;;;6.67;3.10;;;;;;;21.90;79.14;101359.84;1739367;81;25801;-79
2022/08/12 07:51:24;;;;;;;3.90;2.77;;;;;;;21.97;79.44;101352.34;1744876;82;25797;-80
2022/08/12 07:53:51;;;;;;;5.40;3.55;;;;;;;22.04;78.73;101354.94;1745245;82;25917;-79
2022/08/12 07:56:18;;;;;;;3.30;2.58;;;;;;;22.12;78.92;101355.37;1737880;81;25960;-79
2022/08/12 07:58:45;;;;;;;3.80;3.40;;;;;;;22.22;78.49;101356.91;1743246;81;27448;-79
2022/08/12 08:01:20;;;;;;;2.95;2.75;;;;;;;22.29;78.09;101360.86;1740285;81;25991;-79
2022/08/12 08:06:39;;;;;;;5.95;3.00;;;;;;;22.39;77.35;101363.77;1743207;81;25948;-79
2022/08/12 08:09:05;;;;;;;5.28;3.30;;;;;;;22.48;76.80;101362.82;1741627;81;25812;-81
2022/08/12 08:14:16;;;;;;;4.45;3.27;;;;;;;22.62;77.08;101352.76;1736824;81;25908;-81
2022/08/12 08:16:42;;;;;;;6.47;2.60;;;;;;;22.73;76.02;101354.55;1739085;81;25751;-80
2022/08/12 08:19:22;;;;;;;6.05;3.33;;;;;;;22.80;75.05;101346.20;1739443;81;25853;-77
2022/08/12 08:21:50;;;;;;;8.28;3.33;;;;;;;22.84;75.12;101347.34;1735559;81;25746;-79
2022/08/12 08:24:17;;;;;;;9.43;3.15;;;;;;;22.93;75.87;101345.86;1740527;81;28273;-80
2022/08/12 08:26:47;;;;;;;5.42;2.92;;;;;;;23.01;75.52;101344.90;1743248;81;26430;-84
2022/08/12 08:29:16;;;;;;;5.20;2.90;;;;;;;23.09;74.55;101342.30;1750967;81;26327;-81
2022/08/12 08:31:45;;;;;;;4.55;3.17;;;;;;;23.15;74.36;101345.38;1742852;81;26550;-82
2022/08/12 08:34:13;;;;;;;4.20;3.20;;;;;;;23.23;74.52;101353.14;1738599;81;25762;-81
2022/08/12 08:36:41;;;;;;;9.33;3.20;;;;;;;23.29;73.94;101350.77;1742121;81;27441;-81
2022/08/12 08:39:08;;;;;;;6.15;3.40;;;;;;;23.36;73.58;101345.98;1736659;81;25672;-81
2022/08/12 08:44:19;;;;;;;6.10;2.87;;;;;;;23.47;72.75;101347.78;1738095;81;25813;-80
2022/08/12 08:46:48;;;;;;;9.18;2.80;;;;;;;23.54;71.55;101340.23;1741941;81;25752;-81
2022/08/12 08:49:18;;;;;;;5.67;3.02;;;;;;;23.62;72.68;101347.98;1733861;81;27707;-81
2022/08/12 08:51:45;;;;;;;3.35;2.72;;;;;;;23.69;72.67;101349.95;1740089;81;25797;-81
2022/08/12 08:54:12;;;;;;;6.92;2.70;;;;;;;23.68;72.31;101355.70;1738247;81;25609;-81
2022/08/12 08:56:43;;;;;;;6.95;2.62;;;;;;;23.72;70.72;101358.20;1731947;82;26596;-80
2022/08/12 08:59:13;;;;;;;4.97;2.85;;;;;;;23.76;70.83;101357.44;1738963;82;26409;-81
2022/08/12 09:01:40;;;;;;;7.87;2.60;;;;;;;23.82;70.26;101361.09;1741154;82;27917;-81
2022/08/12 09:04:09;;;;;;;7.22;3.15;;;;;;;23.90;69.67;101361.99;1741774;82;26694;-81
2022/08/12 09:06:40;;;;;;;5.17;2.75;;;;;;;23.92;69.56;101361.73;1743416;82;26090;-82
2022/08/12 09:09:08;;;;;;;5.95;2.47;;;;;;;23.94;69.54;101356.83;1744944;82;25759;-81
2022/08/12 09:14:21;;;;;;;3.60;2.72;;;;;;;23.97;70.41;101354.95;1739615;81;28299;-80
2022/08/12 09:16:49;;;;;;;4.58;2.80;;;;;;;24.03;70.06;101350.66;1745097;81;25750;-80
2022/08/12 09:19:17;;;;;;;3.10;2.55;;;;;;;24.08;69.24;101351.28;1701415;82;26218;-79
2022/08/12 09:21:47;;;;;;;5.45;2.72;;;;;;;24.09;69.75;101344.70;1706571;83;25967;-80
2022/08/12 09:24:19;;;;;;;;;;;;;;;24.09;69.63;101349.65;1702568;83;26547;-80
2022/08/12 09:26:43;;;;;;;3.92;3.00;;;;;;;24.08;68.23;101341.14;1667703;84;27475;-79
2022/08/12 09:29:09;;;;;;;5.58;3.08;;;;;;;24.01;68.34;101344.61;1671460;84;26026;-80
2022/08/12 09:31:35;;;;;;;4.85;2.83;;;;;;;24.01;68.82;101341.04;1698707;82;25746;-80
2022/08/12 09:34:02;;;;;;;4.40;2.52;;;;;;;24.06;69.36;101343.30;1700462;82;25842;-81
2022/08/12 09:36:30;;;;;;;5.75;2.72;;;;;;;24.08;68.66;101345.24;1700143;84;25827;-80
2022/08/12 09:38:56;;;;;;;4.50;3.10;;;;;;;24.11;68.31;101341.17;1698421;84;27684;-80
2022/08/12 09:41:23;;;;;;;4.58;2.60;;;;;;;24.22;69.43;101344.30;1699555;84;25898;-79
2022/08/12 09:46:23;;;;;;;4.37;2.25;;;;;;;24.39;68.23;101347.22;1668005;83;25859;-80
2022/08/12 09:48:50;;;;;;;3.10;2.62;;;;;;;24.47;67.44;101348.11;1678736;84;26007;-80
2022/08/12 09:51:16;;;;;;;4.50;2.55;;;;;;;24.52;67.76;101351.44;1698173;82;27898;-81
2022/08/12 09:53:42;;;;;;;4.80;2.75;;;;;;;24.53;67.37;101345.42;1738419;81;25836;-81
2022/08/12 09:56:16;;;;;;;4.87;2.62;;;;;;;24.58;68.29;101350.92;1744455;81;26409;-80
2022/08/12 09:58:40;;;;;;;4.87;3.20;;;;;;;24.60;67.88;101343.27;1698647;82;25980;-81
2022/08/12 10:01:07;;;;;;;6.87;2.45;;;;;;;24.63;68.08;101339.48;1695550;82;25266;-79
2022/08/12 10:03:36;;;;;;;5.97;3.10;;;;;;;24.65;67.26;101337.31;1702157;82;27450;-80
2022/08/12 10:06:05;;;;;;;3.05;2.67;;;;;;;24.69;67.83;101330.75;1698824;82;25763;-80
2022/08/12 10:08:34;;;;;;;6.22;2.65;;;;;;;24.79;67.74;101330.85;1671232;84;25308;-80
2022/08/12 10:13:53;;;;;;;5.97;2.80;;;;;;;24.78;67.03;101330.05;1656263;84;25908;-82
2022/08/12 10:16:23;;;;;;;6.05;3.10;;;;;;;24.72;66.73;101326.93;1653491;84;27495;-80
2022/08/12 10:19:00;;;;;;;3.72;3.10;;;;;;;24.68;67.25;101323.06;1684377;81;25856;-79
2022/08/12 10:21:35;;;;;;;3.33;2.50;;;;;;;24.72;67.47;101318.71;1740809;81;25851;-81
2022/08/12 10:24:05;;;;;;;4.28;2.77;;;;;;;24.80;68.04;101316.91;1738288;81;25796;-82
2022/08/12 10:29:38;;;;;;;5.22;3.58;;;;;;;24.98;67.44;101309.61;1698395;82;27376;-81
2022/08/12 10:32:11;;;;;;;6.00;4.25;;;;;;;25.08;66.89;101312.44;1695568;82;25345;-81
2022/08/12 10:34:39;;;;;;;4.58;3.92;;;;;;;25.15;67.40;101313.55;1666580;84;25960;-81
2022/08/12 10:37:06;;;;;;;3.80;3.47;;;;;;;25.22;66.84;101313.61;1675416;84;26841;-82
2022/08/12 10:39:38;;;;;;;5.95;3.50;;;;;;;25.31;67.46;101300.75;1741568;81;25777;-81
2022/08/12 10:45:04;;;;;;;4.20;3.80;;;;;;;25.51;65.99;101310.48;1712943;82;25981;-80
2022/08/12 10:47:34;;;;;;;7.75;3.95;;;;;;;25.46;65.50;101309.92;1701650;82;26428;-80
2022/08/12 10:50:00;;;;;;;3.60;3.30;;;;;;;25.35;65.68;101308.19;1701452;83;25909;-80
2022/08/12 10:52:30;;;;;;;5.08;3.77;;;;;;;25.28;65.36;101308.16;1696737;82;25551;-80
2022/08/12 10:54:58;;;;;;;5.95;3.83;;;;;;;25.20;65.41;101313.59;1700314;83;28489;-80
2022/08/12 10:57:26;;;;;;;4.53;3.42;;;;;;;25.14;65.95;101310.55;1676902;84;25930;-80
2022/08/12 10:59:58;;;;;;;5.30;3.60;;;;;;;25.16;66.19;101307.82;1699536;82;26597;-80
2022/08/12 11:02:26;;;;;;;5.25;3.33;;;;;;;25.16;65.97;101302.88;1699818;83;25869;-80
2022/08/12 11:04:56;;;;;;;6.62;3.40;;;;;;;25.17;66.01;101297.69;1673680;84;25369;-80
2022/08/12 11:07:23;;;;;;;5.50;3.58;;;;;;;25.21;65.81;101305.66;1664396;84;27503;-80
2022/08/12 11:09:49;;;;;;;3.45;3.15;;;;;;;25.26;66.51;101300.17;1739838;81;25794;-80
2022/08/12 11:12:17;;;;;;;3.10;2.90;;;;;;;25.35;66.98;101299.13;1744052;81;25848;-80
2022/08/12 11:14:44;;;;;;;6.37;3.20;;;;;;;25.43;67.38;101299.47;1738352;81;26549;-80
2022/08/12 11:17:13;;;;;;;7.08;3.15;;;;;;;25.52;66.87;101302.52;1739233;81;26356;-80
2022/08/12 11:19:42;;;;;;;5.22;3.35;;;;;;;25.59;66.90;101301.73;1744401;81;27537;-80
2022/08/12 11:22:10;;;;;;;6.50;3.22;;;;;;;25.62;67.59;101294.34;1742154;81;25620;-81
2022/08/12 11:24:38;;;;;;;6.90;3.95;;;;;;;25.68;67.28;101306.98;1685735;83;25816;-80
2022/08/12 11:27:07;;;;;;;5.72;3.67;;;;;;;25.64;66.61;101301.77;1702479;82;25874;-80
2022/08/12 11:29:35;;;;;;;6.67;3.83;;;;;;;25.59;66.49;101302.56;1695789;82;25826;-78
2022/08/12 11:32:02;;;;;;;7.60;4.20;;;;;;;25.54;66.57;101303.91;1668162;85;28021;-79
2022/08/12 11:34:29;;;;;;;4.03;3.70;;;;;;;25.56;66.50;101298.98;1695735;82;25809;-80
2022/08/12 11:37:08;;;;;;;6.50;3.95;;;;;;;25.53;66.73;101295.95;1702119;82;26111;-79
2022/08/12 11:39:31;;;;;;;6.75;3.83;;;;;;;25.48;66.36;101298.66;1700845;83;26577;-80
2022/08/12 11:41:59;;;;;;;5.90;3.65;;;;;;;25.45;67.00;101297.85;1695166;82;25778;-80
2022/08/12 11:44:25;;;;;;;5.20;3.77;;;;;;;25.45;67.38;101298.65;1729277;81;27444;-80
2022/08/12 11:46:53;;;;;;;4.55;3.70;;;;;;;25.44;67.42;101297.02;1732517;81;26471;-79
2022/08/12 11:49:22;;;;;;;6.72;4.20;;;;;;;25.42;67.12;101294.26;1672658;84;26509;-80
2022/08/12 11:51:48;;;;;;;5.20;4.03;;;;;;;25.38;67.04;101285.72;1668451;85;25891;-80
2022/08/12 11:54:15;;;;;;;4.75;3.75;;;;;;;25.38;67.17;101290.38;1704416;83;25798;-80
2022/08/12 11:56:41;;;;;;;4.33;3.92;;;;;;;25.39;67.79;101285.98;1706763;82;27067;-79
2022/08/12 11:59:08;;;;;;;4.67;3.65;;;;;;;25.42;67.99;101291.52;1674361;84;26296;-80
2022/08/12 12:01:34;;;;;;;4.85;4.45;;;;;;;25.43;67.89;101289.06;1702275;82;26419;-81
2022/08/12 12:04:00;;;;;;;7.05;4.58;;;;;;;25.46;67.11;101285.77;1675197;84;25766;-80
2022/08/12 12:06:27;;;;;;;10.13;4.80;;;;;;;25.50;67.20;101284.13;1696836;84;25812;-79
2022/08/12 12:08:53;;;;;;;5.30;4.53;;;;;;;25.55;67.42;101281.42;1701482;83;28302;-79
2022/08/12 12:11:21;;;;;;;4.97;4.35;;;;;;;25.62;67.81;101286.11;1670803;84;26125;-79
2022/08/12 12:13:49;;;;;;;6.20;4.80;;;;;;;25.67;67.66;101289.69;1701669;84;25892;-79
2022/08/12 12:16:15;;;;;;;4.83;4.40;;;;;;;25.73;67.78;101283.66;1702110;84;26547;-78
2022/08/12 12:18:41;;;;;;;7.80;4.42;;;;;;;25.77;67.73;101281.47;1674134;84;26208;-79
2022/08/12 12:21:08;;;;;;;11.20;5.08;;;;;;;25.77;66.99;101280.10;1703196;82;27467;-79
2022/08/12 12:23:35;;;;;;;8.53;4.30;;;;;;;25.79;67.29;101277.91;1676169;84;25793;-79
2022/08/12 12:26:05;;;;;;;8.28;5.20;;;;;;;25.84;67.61;101276.56;1698722;84;25926;-79
2022/08/12 12:28:34;;;;;;;9.58;4.10;;;;;;;25.90;67.62;101282.88;1675445;84;25808;-79
2022/08/12 12:31:01;;;;;;;7.00;4.90;;;;;;;25.88;67.36;101273.55;1701390;82;25896;-79
2022/08/12 12:33:27;;;;;;;6.62;4.83;;;;;;;25.88;67.19;101268.59;1699570;82;27441;-81
2022/08/12 12:35:53;;;;;;;5.50;4.70;;;;;;;25.90;67.25;101267.77;1738192;81;25979;-79
2022/08/12 12:38:20;;;;;;;9.30;4.65;;;;;;;25.92;67.24;101268.33;1743211;81;25271;-79
2022/08/12 12:40:48;;;;;;;10.40;5.60;;;;;;;25.95;67.54;101265.88;1743762;81;26538;-80
2022/08/12 12:43:15;;;;;;;7.67;4.58;;;;;;;25.94;67.04;101259.27;1736265;81;25808;-80
2022/08/12 12:45:44;;;;;;;5.25;4.72;;;;;;;25.92;67.05;101263.67;1742257;81;27464;-80
2022/08/12 12:48:17;;;;;;;6.05;4.85;;;;;;;25.89;67.19;101258.74;1679062;84;25777;-79
2022/08/12 12:51:14;;;;;;;7.50;4.55;;;;;;;25.90;67.63;101260.37;1669427;84;25326;-79
2022/08/12 12:53:20;;;;;;;6.42;4.40;;;;;;;25.90;67.47;101260.91;1703014;83;25858;-81
2022/08/12 12:55:45;;;;;;;8.10;5.60;;;;;;;25.91;67.48;101261.20;1702400;82;25993;-80
2022/08/12 12:58:15;;;;;;;8.48;4.97;;;;;;;25.92;67.59;101258.17;1675327;84;28324;-80
2022/08/12 13:00:46;;;;;;;5.85;5.12;;;;;;;25.90;67.33;101257.63;1699354;84;34933;-80
2022/08/12 13:03:18;;;;;;;5.00;4.53;;;;;;;25.88;67.62;101259.82;1698411;84;25765;-79
2022/08/12 13:05:42;;;;;;;5.33;4.75;;;;;;;25.90;67.67;101255.42;1668585;84;25949;-81
2022/08/12 13:08:24;;;;;;;8.33;5.08;;;;;;;25.92;67.56;101255.43;1703062;84;25970;-79
2022/08/12 13:10:53;;;;;;;7.17;4.87;;;;;;;25.96;67.93;101249.67;1675645;84;27631;-81
2022/08/12 13:13:21;;;;;;;5.77;5.23;;;;;;;26.08;67.76;101248.08;1671465;84;25393;-80
2022/08/12 13:15:49;;;;;;;8.85;5.15;;;;;;;26.17;67.39;101242.87;1670537;84;25875;-79
2022/08/12 13:18:19;;;;;;;9.43;5.05;;;;;;;26.25;67.84;101236.81;1701624;82;26357;-80
2022/08/12 13:20:46;;;;;;;9.40;4.87;;;;;;;26.28;67.01;101234.33;1697845;82;25803;-79
2022/08/12 13:23:19;;;;;;;7.55;5.40;;;;;;;26.33;67.12;101227.48;1671270;84;27451;-79
2022/08/12 13:25:48;;;;;;;5.47;4.85;;;;;;;26.34;66.87;101228.30;1698553;82;25783;-79
2022/08/12 13:28:22;;;;;;;6.37;5.42;;;;;;;26.34;66.99;101235.17;1739683;81;25806;-79
2022/08/12 13:30:51;;;;;;;9.65;6.50;;;;;;;26.35;66.15;101230.77;1742714;81;25815;-80
2022/08/12 13:33:24;;;;;;;5.58;5.03;;;;;;;26.35;65.93;101235.44;1738975;81;26417;-80
2022/08/12 13:35:59;;;;;;;6.53;5.33;;;;;;;26.33;65.94;101239.84;1738513;81;27569;-79